sensor_id;sensor_type;location;lat;lon;timestamp;temperature;humidity
83283;DHT22;73190;50.780;5.658;2024-01-11T00:00:12;-2.00;71.30
83283;DHT22;73190;50.780;5.658;2024-01-11T00:02:39;-2.10;71.20
83283;DHT22;73190;50.780;5.658;2024-01-11T00:05:08;-2.10;71.10
83283;DHT22;73190;50.780;5.658;2024-01-11T00:07:35;-2.00;70.60
83283;DHT22;73190;50.780;5.658;2024-01-11T00:10:03;-2.00;70.60
83283;DHT22;73190;50.780;5.658;2024-01-11T00:12:31;-2.10;69.90
83283;DHT22;73190;50.780;5.658;2024-01-11T00:14:58;-2.10;70.70
83283;DHT22;73190;50.780;5.658;2024-01-11T00:17:26;-2.20;70.80
83283;DHT22;73190;50.780;5.658;2024-01-11T00:19:53;-2.20;71.00
83283;DHT22;73190;50.780;5.658;2024-01-11T00:22:21;-2.20;70.80
83283;DHT22;73190;50.780;5.658;2024-01-11T00:24:48;-2.20;71.40
83283;DHT22;73190;50.780;5.658;2024-01-11T00:27:16;-2.30;71.50
83283;DHT22;73190;50.780;5.658;2024-01-11T00:29:44;-2.30;71.80
83283;DHT22;73190;50.780;5.658;2024-01-11T00:32:11;-2.30;71.80
83283;DHT22;73190;50.780;5.658;2024-01-11T00:34:39;-2.30;71.80
83283;DHT22;73190;50.780;5.658;2024-01-11T00:37:06;-2.20;71.40
83283;DHT22;73190;50.780;5.658;2024-01-11T00:39:34;-2.20;70.60
83283;DHT22;73190;50.780;5.658;2024-01-11T00:42:02;-2.10;69.40
83283;DHT22;73190;50.780;5.658;2024-01-11T00:44:29;-2.30;70.30
83283;DHT22;73190;50.780;5.658;2024-01-11T00:46:57;-2.50;71.20
83283;DHT22;73190;50.780;5.658;2024-01-11T00:49:24;-2.50;71.20
83283;DHT22;73190;50.780;5.658;2024-01-11T00:51:52;-2.60;72.10
83283;DHT22;73190;50.780;5.658;2024-01-11T00:54:19;-2.70;73.20
83283;DHT22;73190;50.780;5.658;2024-01-11T00:56:48;-2.70;73.20
83283;DHT22;73190;50.780;5.658;2024-01-11T00:59:15;-2.60;72.60
83283;DHT22;73190;50.780;5.658;2024-01-11T01:01:50;-2.50;72.30
83283;DHT22;73190;50.780;5.658;2024-01-11T01:04:17;-2.50;72.30
83283;DHT22;73190;50.780;5.658;2024-01-11T01:06:45;-2.50;72.20
83283;DHT22;73190;50.780;5.658;2024-01-11T01:09:13;-2.50;71.50
83283;DHT22;73190;50.780;5.658;2024-01-11T01:11:41;-2.50;71.70
83283;DHT22;73190;50.780;5.658;2024-01-11T01:14:08;-2.50;72.40
83283;DHT22;73190;50.780;5.658;2024-01-11T01:16:36;-2.60;72.40
83283;DHT22;73190;50.780;5.658;2024-01-11T01:19:04;-2.70;73.20
83283;DHT22;73190;50.780;5.658;2024-01-11T01:21:31;-2.50;72.30
83283;DHT22;73190;50.780;5.658;2024-01-11T01:23:59;-2.50;71.50
83283;DHT22;73190;50.780;5.658;2024-01-11T01:26:26;-2.60;71.60
83283;DHT22;73190;50.780;5.658;2024-01-11T01:28:54;-2.60;72.20
83283;DHT22;73190;50.780;5.658;2024-01-11T01:31:22;-2.60;72.70
83283;DHT22;73190;50.780;5.658;2024-01-11T01:33:49;-2.50;71.80
83283;DHT22;73190;50.780;5.658;2024-01-11T01:36:17;-2.40;71.00
83283;DHT22;73190;50.780;5.658;2024-01-11T01:38:44;-2.50;70.80
83283;DHT22;73190;50.780;5.658;2024-01-11T01:41:12;-2.60;71.60
83283;DHT22;73190;50.780;5.658;2024-01-11T01:43:40;-2.50;71.50
83283;DHT22;73190;50.780;5.658;2024-01-11T01:46:07;-2.70;71.00
83283;DHT22;73190;50.780;5.658;2024-01-11T01:48:35;-2.70;71.80
83283;DHT22;73190;50.780;5.658;2024-01-11T01:51:03;-2.70;72.10
83283;DHT22;73190;50.780;5.658;2024-01-11T01:53:32;-2.70;71.20
83283;DHT22;73190;50.780;5.658;2024-01-11T01:55:59;-2.70;71.50
83283;DHT22;73190;50.780;5.658;2024-01-11T01:58:27;-2.70;71.60
83283;DHT22;73190;50.780;5.658;2024-01-11T02:00:55;-2.70;71.70
83283;DHT22;73190;50.780;5.658;2024-01-11T02:03:25;-2.60;71.10
83283;DHT22;73190;50.780;5.658;2024-01-11T02:05:54;-2.70;71.60
83283;DHT22;73190;50.780;5.658;2024-01-11T02:08:23;-2.70;72.00
83283;DHT22;73190;50.780;5.658;2024-01-11T02:10:51;-2.70;72.10
83283;DHT22;73190;50.780;5.658;2024-01-11T02:13:20;-2.80;72.50
83283;DHT22;73190;50.780;5.658;2024-01-11T02:15:48;-2.80;72.70
83283;DHT22;73190;50.780;5.658;2024-01-11T02:18:15;-2.70;72.50
83283;DHT22;73190;50.780;5.658;2024-01-11T02:20:43;-2.50;71.10
83283;DHT22;73190;50.780;5.658;2024-01-11T02:23:17;-2.60;70.90
83283;DHT22;73190;50.780;5.658;2024-01-11T02:25:45;-2.60;70.20
83283;DHT22;73190;50.780;5.658;2024-01-11T02:28:12;-2.70;70.30
83283;DHT22;73190;50.780;5.658;2024-01-11T02:30:40;-2.90;71.50
83283;DHT22;73190;50.780;5.658;2024-01-11T02:33:07;-2.90;72.10
83283;DHT22;73190;50.780;5.658;2024-01-11T02:35:36;-3.00;72.80
83283;DHT22;73190;50.780;5.658;2024-01-11T02:38:06;-2.90;73.10
83283;DHT22;73190;50.780;5.658;2024-01-11T02:40:34;-2.90;72.80
83283;DHT22;73190;50.780;5.658;2024-01-11T02:43:11;-2.90;72.50
83283;DHT22;73190;50.780;5.658;2024-01-11T02:45:39;-2.80;72.20
83283;DHT22;73190;50.780;5.658;2024-01-11T02:48:06;-2.70;71.80
83283;DHT22;73190;50.780;5.658;2024-01-11T02:50:34;-2.70;71.60
83283;DHT22;73190;50.780;5.658;2024-01-11T02:53:01;-2.70;71.70
83283;DHT22;73190;50.780;5.658;2024-01-11T02:55:29;-2.70;71.70
83283;DHT22;73190;50.780;5.658;2024-01-11T02:57:57;-2.80;72.30
83283;DHT22;73190;50.780;5.658;2024-01-11T03:00:24;-2.80;72.60
83283;DHT22;73190;50.780;5.658;2024-01-11T03:02:52;-2.70;72.10
83283;DHT22;73190;50.780;5.658;2024-01-11T03:05:19;-2.60;71.50
83283;DHT22;73190;50.780;5.658;2024-01-11T03:07:47;-2.70;71.50
83283;DHT22;73190;50.780;5.658;2024-01-11T03:10:14;-2.60;71.60
83283;DHT22;73190;50.780;5.658;2024-01-11T03:12:43;-2.50;70.80
83283;DHT22;73190;50.780;5.658;2024-01-11T03:15:11;-2.70;71.00
83283;DHT22;73190;50.780;5.658;2024-01-11T03:17:38;-2.90;71.90
83283;DHT22;73190;50.780;5.658;2024-01-11T03:20:07;-2.70;71.70
83283;DHT22;73190;50.780;5.658;2024-01-11T03:22:35;-2.70;71.30
83283;DHT22;73190;50.780;5.658;2024-01-11T03:25:03;-2.80;72.00
83283;DHT22;73190;50.780;5.658;2024-01-11T03:27:31;-2.80;71.80
83283;DHT22;73190;50.780;5.658;2024-01-11T03:29:58;-2.90;72.00
83283;DHT22;73190;50.780;5.658;2024-01-11T03:32:26;-2.80;72.80
83283;DHT22;73190;50.780;5.658;2024-01-11T03:34:53;-2.90;72.50
83283;DHT22;73190;50.780;5.658;2024-01-11T03:37:21;-2.80;72.40
83283;DHT22;73190;50.780;5.658;2024-01-11T03:39:48;-2.90;72.90
83283;DHT22;73190;50.780;5.658;2024-01-11T03:42:16;-2.80;72.80
83283;DHT22;73190;50.780;5.658;2024-01-11T03:44:43;-2.80;72.50
83283;DHT22;73190;50.780;5.658;2024-01-11T03:47:11;-2.70;72.00
83283;DHT22;73190;50.780;5.658;2024-01-11T03:49:39;-2.70;71.30
83283;DHT22;73190;50.780;5.658;2024-01-11T03:52:06;-2.70;71.50
83283;DHT22;73190;50.780;5.658;2024-01-11T03:54:34;-2.80;71.60
83283;DHT22;73190;50.780;5.658;2024-01-11T03:57:01;-2.80;71.70
83283;DHT22;73190;50.780;5.658;2024-01-11T03:59:29;-2.90;71.10
83283;DHT22;73190;50.780;5.658;2024-01-11T04:01:57;-2.90;71.60
83283;DHT22;73190;50.780;5.658;2024-01-11T04:04:25;-2.90;71.10
83283;DHT22;73190;50.780;5.658;2024-01-11T04:06:53;-2.90;71.70
83283;DHT22;73190;50.780;5.658;2024-01-11T04:09:20;-3.00;72.20
83283;DHT22;73190;50.780;5.658;2024-01-11T04:11:48;-3.10;72.90
83283;DHT22;73190;50.780;5.658;2024-01-11T04:14:15;-3.20;73.10
83283;DHT22;73190;50.780;5.658;2024-01-11T04:16:43;-3.10;73.70
83283;DHT22;73190;50.780;5.658;2024-01-11T04:19:11;-3.00;73.20
83283;DHT22;73190;50.780;5.658;2024-01-11T04:21:39;-2.20;72.70
83283;DHT22;73190;50.780;5.658;2024-01-11T04:24:06;-2.90;72.50
83283;DHT22;73190;50.780;5.658;2024-01-11T04:26:35;-2.90;72.10
83283;DHT22;73190;50.780;5.658;2024-01-11T04:29:02;-2.90;71.60
83283;DHT22;73190;50.780;5.658;2024-01-11T04:31:30;-2.90;71.70
83283;DHT22;73190;50.780;5.658;2024-01-11T04:33:57;-2.90;71.80
83283;DHT22;73190;50.780;5.658;2024-01-11T04:36:25;-3.00;72.10
83283;DHT22;73190;50.780;5.658;2024-01-11T04:38:53;-3.00;72.60
83283;DHT22;73190;50.780;5.658;2024-01-11T04:41:20;-3.10;72.60
83283;DHT22;73190;50.780;5.658;2024-01-11T04:43:48;-3.00;72.60
83283;DHT22;73190;50.780;5.658;2024-01-11T04:46:20;-3.00;71.90
83283;DHT22;73190;50.780;5.658;2024-01-11T04:48:49;-3.10;72.50
83283;DHT22;73190;50.780;5.658;2024-01-11T04:51:18;-3.10;72.50
83283;DHT22;73190;50.780;5.658;2024-01-11T04:53:46;-3.10;72.50
83283;DHT22;73190;50.780;5.658;2024-01-11T04:56:15;-3.10;72.60
83283;DHT22;73190;50.780;5.658;2024-01-11T04:58:44;-3.10;72.60
83283;DHT22;73190;50.780;5.658;2024-01-11T05:01:13;-3.10;73.10
83283;DHT22;73190;50.780;5.658;2024-01-11T05:03:41;-3.20;72.80
83283;DHT22;73190;50.780;5.658;2024-01-11T05:06:20;-3.10;72.50
83283;DHT22;73190;50.780;5.658;2024-01-11T05:08:50;-3.10;72.50
83283;DHT22;73190;50.780;5.658;2024-01-11T05:11:22;-3.10;72.00
83283;DHT22;73190;50.780;5.658;2024-01-11T05:13:51;-3.10;72.00
83283;DHT22;73190;50.780;5.658;2024-01-11T05:16:20;-3.10;71.60
83283;DHT22;73190;50.780;5.658;2024-01-11T05:18:49;-3.10;71.90
83283;DHT22;73190;50.780;5.658;2024-01-11T05:21:18;-3.10;71.90
83283;DHT22;73190;50.780;5.658;2024-01-11T05:23:45;-3.20;72.30
83283;DHT22;73190;50.780;5.658;2024-01-11T05:26:14;-3.10;71.70
83283;DHT22;73190;50.780;5.658;2024-01-11T05:28:42;-3.20;71.60
83283;DHT22;73190;50.780;5.658;2024-01-11T05:31:11;-3.20;72.10
83283;DHT22;73190;50.780;5.658;2024-01-11T05:33:39;-3.20;71.60
83283;DHT22;73190;50.780;5.658;2024-01-11T05:36:07;-3.30;71.90
83283;DHT22;73190;50.780;5.658;2024-01-11T05:38:35;-3.40;73.00
83283;DHT22;73190;50.780;5.658;2024-01-11T05:41:03;-3.30;73.20
83283;DHT22;73190;50.780;5.658;2024-01-11T05:43:30;-3.30;73.20
83283;DHT22;73190;50.780;5.658;2024-01-11T05:45:58;-3.20;73.20
83283;DHT22;73190;50.780;5.658;2024-01-11T05:48:26;-3.20;72.50
83283;DHT22;73190;50.780;5.658;2024-01-11T05:50:54;-3.30;72.90
83283;DHT22;73190;50.780;5.658;2024-01-11T05:53:21;-3.20;71.80
83283;DHT22;73190;50.780;5.658;2024-01-11T05:55:49;-3.30;72.40
83283;DHT22;73190;50.780;5.658;2024-01-11T05:58:16;-3.30;72.80
83283;DHT22;73190;50.780;5.658;2024-01-11T06:00:44;-3.30;73.40
83283;DHT22;73190;50.780;5.658;2024-01-11T06:03:14;-3.30;73.40
83283;DHT22;73190;50.780;5.658;2024-01-11T06:05:42;-3.30;73.30
83283;DHT22;73190;50.780;5.658;2024-01-11T06:08:09;-3.30;73.70
83283;DHT22;73190;50.780;5.658;2024-01-11T06:10:39;-3.10;73.50
83283;DHT22;73190;50.780;5.658;2024-01-11T06:13:06;-3.20;73.00
83283;DHT22;73190;50.780;5.658;2024-01-11T06:15:35;-3.20;72.40
83283;DHT22;73190;50.780;5.658;2024-01-11T06:18:02;-3.20;72.40
83283;DHT22;73190;50.780;5.658;2024-01-11T06:20:31;-3.20;72.80
83283;DHT22;73190;50.780;5.658;2024-01-11T06:22:59;-3.10;73.20
83283;DHT22;73190;50.780;5.658;2024-01-11T06:25:26;-3.10;72.30
83283;DHT22;73190;50.780;5.658;2024-01-11T06:27:54;-3.10;72.50
83283;DHT22;73190;50.780;5.658;2024-01-11T06:30:22;-3.20;73.10
83283;DHT22;73190;50.780;5.658;2024-01-11T06:32:49;-3.20;72.70
83283;DHT22;73190;50.780;5.658;2024-01-11T06:35:17;-3.20;72.90
83283;DHT22;73190;50.780;5.658;2024-01-11T06:37:45;-3.10;72.30
83283;DHT22;73190;50.780;5.658;2024-01-11T06:40:13;-3.30;72.30
83283;DHT22;73190;50.780;5.658;2024-01-11T06:42:40;-3.30;73.50
83283;DHT22;73190;50.780;5.658;2024-01-11T06:45:09;-3.20;73.30
83283;DHT22;73190;50.780;5.658;2024-01-11T06:47:36;-3.20;72.90
83283;DHT22;73190;50.780;5.658;2024-01-11T06:50:04;-3.10;72.30
83283;DHT22;73190;50.780;5.658;2024-01-11T06:52:32;-3.10;72.30
83283;DHT22;73190;50.780;5.658;2024-01-11T06:55:00;-3.20;72.20
83283;DHT22;73190;50.780;5.658;2024-01-11T06:57:27;-3.30;72.90
83283;DHT22;73190;50.780;5.658;2024-01-11T06:59:55;-3.30;73.30
83283;DHT22;73190;50.780;5.658;2024-01-11T07:02:22;-3.30;73.40
83283;DHT22;73190;50.780;5.658;2024-01-11T07:04:50;-3.20;72.90
83283;DHT22;73190;50.780;5.658;2024-01-11T07:07:17;-3.10;72.60
83283;DHT22;73190;50.780;5.658;2024-01-11T07:09:45;-3.20;72.80
83283;DHT22;73190;50.780;5.658;2024-01-11T07:12:12;-3.30;72.30
83283;DHT22;73190;50.780;5.658;2024-01-11T07:14:40;-3.30;72.40
83283;DHT22;73190;50.780;5.658;2024-01-11T07:17:08;-3.40;72.90
83283;DHT22;73190;50.780;5.658;2024-01-11T07:19:35;-3.40;73.20
83283;DHT22;73190;50.780;5.658;2024-01-11T07:22:03;-3.40;73.30
83283;DHT22;73190;50.780;5.658;2024-01-11T07:24:31;-3.30;73.20
83283;DHT22;73190;50.780;5.658;2024-01-11T07:27:00;-3.30;73.10
83283;DHT22;73190;50.780;5.658;2024-01-11T07:29:27;-3.20;72.50
83283;DHT22;73190;50.780;5.658;2024-01-11T07:31:59;-3.30;72.30
83283;DHT22;73190;50.780;5.658;2024-01-11T07:34:27;-3.30;72.40
83283;DHT22;73190;50.780;5.658;2024-01-11T07:36:55;-3.30;73.40
83283;DHT22;73190;50.780;5.658;2024-01-11T07:39:25;-3.30;72.00
83283;DHT22;73190;50.780;5.658;2024-01-11T07:41:52;-3.30;72.60
83283;DHT22;73190;50.780;5.658;2024-01-11T07:44:20;-3.40;73.00
83283;DHT22;73190;50.780;5.658;2024-01-11T07:46:47;-3.30;73.50
83283;DHT22;73190;50.780;5.658;2024-01-11T07:49:15;-3.40;72.70
83283;DHT22;73190;50.780;5.658;2024-01-11T07:51:42;-3.30;73.00
83283;DHT22;73190;50.780;5.658;2024-01-11T07:54:10;-3.40;73.20
83283;DHT22;73190;50.780;5.658;2024-01-11T07:56:37;-3.30;73.20
83283;DHT22;73190;50.780;5.658;2024-01-11T07:59:05;-3.20;72.30
83283;DHT22;73190;50.780;5.658;2024-01-11T08:01:32;-3.20;71.90
83283;DHT22;73190;50.780;5.658;2024-01-11T08:04:02;-4.00;71.00
83283;DHT22;73190;50.780;5.658;2024-01-11T08:06:29;-3.30;72.10
83283;DHT22;73190;50.780;5.658;2024-01-11T08:08:57;-3.30;72.70
83283;DHT22;73190;50.780;5.658;2024-01-11T08:11:24;-3.30;72.20
83283;DHT22;73190;50.780;5.658;2024-01-11T08:13:52;-3.40;72.30
83283;DHT22;73190;50.780;5.658;2024-01-11T08:16:21;-3.30;72.80
83283;DHT22;73190;50.780;5.658;2024-01-11T08:18:49;-3.20;72.50
83283;DHT22;73190;50.780;5.658;2024-01-11T08:21:17;-3.00;71.60
83283;DHT22;73190;50.780;5.658;2024-01-11T08:23:45;-3.10;71.40
83283;DHT22;73190;50.780;5.658;2024-01-11T08:26:15;-3.00;71.40
83283;DHT22;73190;50.780;5.658;2024-01-11T08:28:45;-3.10;72.00
83283;DHT22;73190;50.780;5.658;2024-01-11T08:31:12;-3.20;72.50
83283;DHT22;73190;50.780;5.658;2024-01-11T08:33:40;-3.10;72.50
83283;DHT22;73190;50.780;5.658;2024-01-11T08:36:08;-3.10;72.90
83283;DHT22;73190;50.780;5.658;2024-01-11T08:38:36;-3.10;72.70
83283;DHT22;73190;50.780;5.658;2024-01-11T08:41:04;-2.90;72.50
83283;DHT22;73190;50.780;5.658;2024-01-11T08:43:31;-2.90;72.50
83283;DHT22;73190;50.780;5.658;2024-01-11T08:45:59;-3.00;72.90
83283;DHT22;73190;50.780;5.658;2024-01-11T08:48:28;-3.00;74.10
83283;DHT22;73190;50.780;5.658;2024-01-11T08:50:56;-2.80;74.90
83283;DHT22;73190;50.780;5.658;2024-01-11T08:53:23;-2.70;75.30
83283;DHT22;73190;50.780;5.658;2024-01-11T08:55:51;-2.40;75.00
83283;DHT22;73190;50.780;5.658;2024-01-11T08:58:19;-2.30;74.40
83283;DHT22;73190;50.780;5.658;2024-01-11T09:00:47;-2.30;74.70
83283;DHT22;73190;50.780;5.658;2024-01-11T09:03:15;-2.30;75.20
83283;DHT22;73190;50.780;5.658;2024-01-11T09:05:43;-2.30;75.20
83283;DHT22;73190;50.780;5.658;2024-01-11T09:08:11;-2.20;75.00
83283;DHT22;73190;50.780;5.658;2024-01-11T09:10:38;-2.00;74.50
83283;DHT22;73190;50.780;5.658;2024-01-11T09:13:07;-1.80;73.90
83283;DHT22;73190;50.780;5.658;2024-01-11T09:15:35;-1.70;73.20
83283;DHT22;73190;50.780;5.658;2024-01-11T09:18:03;-1.70;73.90
83283;DHT22;73190;50.780;5.658;2024-01-11T09:20:31;-1.70;74.30
83283;DHT22;73190;50.780;5.658;2024-01-11T09:22:58;-1.50;74.00
83283;DHT22;73190;50.780;5.658;2024-01-11T09:25:27;-1.40;73.90
83283;DHT22;73190;50.780;5.658;2024-01-11T09:27:55;-1.30;73.60
83283;DHT22;73190;50.780;5.658;2024-01-11T09:30:22;-1.10;73.40
83283;DHT22;73190;50.780;5.658;2024-01-11T09:32:50;-0.80;72.00
83283;DHT22;73190;50.780;5.658;2024-01-11T09:35:18;-0.70;71.80
83283;DHT22;73190;50.780;5.658;2024-01-11T09:37:46;-0.40;70.90
83283;DHT22;73190;50.780;5.658;2024-01-11T09:40:14;0.00;69.80
83283;DHT22;73190;50.780;5.658;2024-01-11T09:42:41;0.40;68.00
83283;DHT22;73190;50.780;5.658;2024-01-11T09:45:16;0.90;66.40
83283;DHT22;73190;50.780;5.658;2024-01-11T09:47:44;1.50;63.60
83283;DHT22;73190;50.780;5.658;2024-01-11T09:50:15;2.10;61.30
83283;DHT22;73190;50.780;5.658;2024-01-11T09:52:48;2.80;58.50
83283;DHT22;73190;50.780;5.658;2024-01-11T09:55:16;3.30;56.40
83283;DHT22;73190;50.780;5.658;2024-01-11T09:57:48;3.90;55.00
83283;DHT22;73190;50.780;5.658;2024-01-11T10:00:19;4.70;53.00
83283;DHT22;73190;50.780;5.658;2024-01-11T10:02:47;5.80;49.70
83283;DHT22;73190;50.780;5.658;2024-01-11T10:05:17;6.80;47.80
83283;DHT22;73190;50.780;5.658;2024-01-11T10:07:45;7.70;45.40
83283;DHT22;73190;50.780;5.658;2024-01-11T10:10:13;8.80;42.90
83283;DHT22;73190;50.780;5.658;2024-01-11T10:12:44;9.50;39.60
83283;DHT22;73190;50.780;5.658;2024-01-11T10:15:11;10.10;38.40
83283;DHT22;73190;50.780;5.658;2024-01-11T10:17:44;10.60;37.50
83283;DHT22;73190;50.780;5.658;2024-01-11T10:20:12;11.10;36.40
83283;DHT22;73190;50.780;5.658;2024-01-11T10:22:44;11.40;36.20
83283;DHT22;73190;50.780;5.658;2024-01-11T10:25:15;11.80;35.60
83283;DHT22;73190;50.780;5.658;2024-01-11T10:27:44;12.50;34.50
83283;DHT22;73190;50.780;5.658;2024-01-11T10:30:13;13.00;33.30
83283;DHT22;73190;50.780;5.658;2024-01-11T10:32:43;13.40;31.80
83283;DHT22;73190;50.780;5.658;2024-01-11T10:35:11;13.80;32.20
83283;DHT22;73190;50.780;5.658;2024-01-11T10:37:39;14.30;30.80
83283;DHT22;73190;50.780;5.658;2024-01-11T10:40:08;14.60;29.70
83283;DHT22;73190;50.780;5.658;2024-01-11T10:42:45;14.50;29.60
83283;DHT22;73190;50.780;5.658;2024-01-11T10:45:14;14.50;30.10
83283;DHT22;73190;50.780;5.658;2024-01-11T10:47:56;14.60;29.50
83283;DHT22;73190;50.780;5.658;2024-01-11T10:50:26;13.10;30.90
83283;DHT22;73190;50.780;5.658;2024-01-11T10:53:02;11.00;34.30
83283;DHT22;73190;50.780;5.658;2024-01-11T10:55:34;9.40;37.30
83283;DHT22;73190;50.780;5.658;2024-01-11T10:58:02;8.30;39.70
83283;DHT22;73190;50.780;5.658;2024-01-11T11:00:31;7.50;41.20
83283;DHT22;73190;50.780;5.658;2024-01-11T11:03:00;6.90;43.40
83283;DHT22;73190;50.780;5.658;2024-01-11T11:05:28;6.50;44.90
83283;DHT22;73190;50.780;5.658;2024-01-11T11:07:58;6.20;45.80
83283;DHT22;73190;50.780;5.658;2024-01-11T11:10:28;6.10;46.50
83283;DHT22;73190;50.780;5.658;2024-01-11T11:12:58;6.00;46.90
83283;DHT22;73190;50.780;5.658;2024-01-11T11:15:29;5.70;47.60
83283;DHT22;73190;50.780;5.658;2024-01-11T11:17:56;5.40;48.50
83283;DHT22;73190;50.780;5.658;2024-01-11T11:20:24;5.20;49.30
83283;DHT22;73190;50.780;5.658;2024-01-11T11:23:08;5.20;49.50
83283;DHT22;73190;50.780;5.658;2024-01-11T11:25:38;5.40;50.10
83283;DHT22;73190;50.780;5.658;2024-01-11T11:28:07;6.60;49.00
83283;DHT22;73190;50.780;5.658;2024-01-11T11:30:37;8.30;43.20
83283;DHT22;73190;50.780;5.658;2024-01-11T11:33:18;9.10;41.80
83283;DHT22;73190;50.780;5.658;2024-01-11T11:35:47;10.50;39.80
83283;DHT22;73190;50.780;5.658;2024-01-11T11:38:19;12.50;36.60
83283;DHT22;73190;50.780;5.658;2024-01-11T11:40:48;14.20;32.50
83283;DHT22;73190;50.780;5.658;2024-01-11T11:43:17;15.60;30.00
83283;DHT22;73190;50.780;5.658;2024-01-11T11:45:46;16.50;28.40
83283;DHT22;73190;50.780;5.658;2024-01-11T11:51:13;17.50;28.20
83283;DHT22;73190;50.780;5.658;2024-01-11T11:53:42;17.90;27.10
83283;DHT22;73190;50.780;5.658;2024-01-11T11:56:11;18.40;26.90
83283;DHT22;73190;50.780;5.658;2024-01-11T11:58:45;18.90;27.00
83283;DHT22;73190;50.780;5.658;2024-01-11T12:01:14;19.10;25.80
83283;DHT22;73190;50.780;5.658;2024-01-11T12:03:44;19.00;26.20
83283;DHT22;73190;50.780;5.658;2024-01-11T12:06:19;19.20;26.30
83283;DHT22;73190;50.780;5.658;2024-01-11T12:08:52;19.70;25.90
83283;DHT22;73190;50.780;5.658;2024-01-11T12:11:21;19.90;25.60
83283;DHT22;73190;50.780;5.658;2024-01-11T12:13:50;20.50;25.70
83283;DHT22;73190;50.780;5.658;2024-01-11T12:16:18;20.60;24.20
83283;DHT22;73190;50.780;5.658;2024-01-11T12:18:48;20.30;24.80
83283;DHT22;73190;50.780;5.658;2024-01-11T12:21:16;19.70;25.50
83283;DHT22;73190;50.780;5.658;2024-01-11T12:23:44;19.10;26.30
83283;DHT22;73190;50.780;5.658;2024-01-11T12:26:11;18.70;26.40
83283;DHT22;73190;50.780;5.658;2024-01-11T12:28:41;18.40;26.70
83283;DHT22;73190;50.780;5.658;2024-01-11T12:31:11;18.20;26.70
83283;DHT22;73190;50.780;5.658;2024-01-11T12:33:39;18.30;27.10
83283;DHT22;73190;50.780;5.658;2024-01-11T12:36:07;18.50;26.50
83283;DHT22;73190;50.780;5.658;2024-01-11T12:38:35;18.70;26.50
83283;DHT22;73190;50.780;5.658;2024-01-11T12:41:04;18.40;26.40
83283;DHT22;73190;50.780;5.658;2024-01-11T12:43:32;17.80;27.30
83283;DHT22;73190;50.780;5.658;2024-01-11T12:46:01;17.10;28.00
83283;DHT22;73190;50.780;5.658;2024-01-11T12:48:29;16.60;28.80
83283;DHT22;73190;50.780;5.658;2024-01-11T12:50:57;16.10;29.60
83283;DHT22;73190;50.780;5.658;2024-01-11T12:53:25;16.20;29.30
83283;DHT22;73190;50.780;5.658;2024-01-11T12:56:03;16.00;29.40
83283;DHT22;73190;50.780;5.658;2024-01-11T12:58:36;15.80;29.20
83283;DHT22;73190;50.780;5.658;2024-01-11T13:01:08;15.90;29.30
83283;DHT22;73190;50.780;5.658;2024-01-11T13:03:38;16.60;29.50
83283;DHT22;73190;50.780;5.658;2024-01-11T13:06:07;17.20;28.60
83283;DHT22;73190;50.780;5.658;2024-01-11T13:08:35;17.00;28.40
83283;DHT22;73190;50.780;5.658;2024-01-11T13:11:05;16.60;28.80
83283;DHT22;73190;50.780;5.658;2024-01-11T13:13:34;16.10;29.20
83283;DHT22;73190;50.780;5.658;2024-01-11T13:16:02;16.00;29.80
83283;DHT22;73190;50.780;5.658;2024-01-11T13:18:35;16.10;29.20
83283;DHT22;73190;50.780;5.658;2024-01-11T13:21:02;16.30;29.30
83283;DHT22;73190;50.780;5.658;2024-01-11T13:23:30;16.30;29.00
83283;DHT22;73190;50.780;5.658;2024-01-11T13:25:57;15.70;29.80
83283;DHT22;73190;50.780;5.658;2024-01-11T13:28:25;14.80;31.20
83283;DHT22;73190;50.780;5.658;2024-01-11T13:30:53;14.30;31.60
83283;DHT22;73190;50.780;5.658;2024-01-11T13:33:21;14.50;31.50
83283;DHT22;73190;50.780;5.658;2024-01-11T13:35:50;15.10;31.10
83283;DHT22;73190;50.780;5.658;2024-01-11T13:38:18;15.60;30.00
83283;DHT22;73190;50.780;5.658;2024-01-11T13:40:46;15.80;29.80
83283;DHT22;73190;50.780;5.658;2024-01-11T13:43:14;15.60;30.00
83283;DHT22;73190;50.780;5.658;2024-01-11T13:45:41;15.30;30.00
83283;DHT22;73190;50.780;5.658;2024-01-11T13:48:10;15.80;29.90
83283;DHT22;73190;50.780;5.658;2024-01-11T13:50:38;16.80;28.90
83283;DHT22;73190;50.780;5.658;2024-01-11T13:53:05;17.30;28.20
83283;DHT22;73190;50.780;5.658;2024-01-11T13:55:33;17.30;28.20
83283;DHT22;73190;50.780;5.658;2024-01-11T13:58:07;17.00;28.20
83283;DHT22;73190;50.780;5.658;2024-01-11T14:00:35;16.70;29.10
83283;DHT22;73190;50.780;5.658;2024-01-11T14:03:03;16.90;28.90
83283;DHT22;73190;50.780;5.658;2024-01-11T14:05:31;16.70;28.70
83283;DHT22;73190;50.780;5.658;2024-01-11T14:07:59;16.70;28.70
83283;DHT22;73190;50.780;5.658;2024-01-11T14:10:28;16.20;28.80
83283;DHT22;73190;50.780;5.658;2024-01-11T14:12:55;15.10;30.00
83283;DHT22;73190;50.780;5.658;2024-01-11T14:15:23;14.40;31.30
83283;DHT22;73190;50.780;5.658;2024-01-11T14:17:51;14.20;31.40
83283;DHT22;73190;50.780;5.658;2024-01-11T14:20:19;14.00;31.40
83283;DHT22;73190;50.780;5.658;2024-01-11T14:22:48;12.90;33.20
83283;DHT22;73190;50.780;5.658;2024-01-11T14:25:22;11.60;35.50
83283;DHT22;73190;50.780;5.658;2024-01-11T14:27:52;10.50;37.10
83283;DHT22;73190;50.780;5.658;2024-01-11T14:30:21;9.70;39.00
83283;DHT22;73190;50.780;5.658;2024-01-11T14:32:49;9.00;40.50
83283;DHT22;73190;50.780;5.658;2024-01-11T14:35:16;8.40;42.00
83283;DHT22;73190;50.780;5.658;2024-01-11T14:37:44;8.00;42.70
83283;DHT22;73190;50.780;5.658;2024-01-11T14:40:12;7.50;44.40
83283;DHT22;73190;50.780;5.658;2024-01-11T14:42:40;7.00;45.40
83283;DHT22;73190;50.780;5.658;2024-01-11T14:45:08;6.50;46.50
83283;DHT22;73190;50.780;5.658;2024-01-11T14:47:35;6.20;47.60
83283;DHT22;73190;50.780;5.658;2024-01-11T14:50:04;6.00;48.30
83283;DHT22;73190;50.780;5.658;2024-01-11T14:52:33;5.90;48.50
83283;DHT22;73190;50.780;5.658;2024-01-11T14:55:01;5.70;49.10
83283;DHT22;73190;50.780;5.658;2024-01-11T14:57:30;5.60;48.80
83283;DHT22;73190;50.780;5.658;2024-01-11T14:59:58;5.50;49.50
83283;DHT22;73190;50.780;5.658;2024-01-11T15:02:25;5.30;49.80
83283;DHT22;73190;50.780;5.658;2024-01-11T15:04:53;5.00;50.60
83283;DHT22;73190;50.780;5.658;2024-01-11T15:07:20;5.00;51.00
83283;DHT22;73190;50.780;5.658;2024-01-11T15:09:48;4.70;51.70
83283;DHT22;73190;50.780;5.658;2024-01-11T15:12:16;4.70;52.10
83283;DHT22;73190;50.780;5.658;2024-01-11T15:14:43;4.60;52.20
83283;DHT22;73190;50.780;5.658;2024-01-11T15:17:11;4.50;52.50
83283;DHT22;73190;50.780;5.658;2024-01-11T15:19:39;4.40;52.50
83283;DHT22;73190;50.780;5.658;2024-01-11T15:22:06;4.30;52.90
83283;DHT22;73190;50.780;5.658;2024-01-11T15:24:35;4.40;52.60
83283;DHT22;73190;50.780;5.658;2024-01-11T15:27:02;4.30;53.20
83283;DHT22;73190;50.780;5.658;2024-01-11T15:29:30;4.20;53.10
83283;DHT22;73190;50.780;5.658;2024-01-11T15:31:57;4.10;53.50
83283;DHT22;73190;50.780;5.658;2024-01-11T15:34:25;4.10;53.90
83283;DHT22;73190;50.780;5.658;2024-01-11T15:36:52;4.10;54.50
83283;DHT22;73190;50.780;5.658;2024-01-11T15:39:20;4.00;54.60
83283;DHT22;73190;50.780;5.658;2024-01-11T15:41:47;4.00;53.90